sensor_id;sensor_type;location;lat;lon;timestamp;temperature;humidity
4453;DHT22;2239;48.152;11.584;2023-04-04T00:00:09;0.60;95.20
4453;DHT22;2239;48.152;11.584;2023-04-04T00:02:36;0.70;95.20
4453;DHT22;2239;48.152;11.584;2023-04-04T00:05:02;0.70;94.90
4453;DHT22;2239;48.152;11.584;2023-04-04T00:07:28;0.70;94.90
4453;DHT22;2239;48.152;11.584;2023-04-04T00:09:53;0.70;94.90
4453;DHT22;2239;48.152;11.584;2023-04-04T00:12:19;0.70;95.00
4453;DHT22;2239;48.152;11.584;2023-04-04T00:14:45;0.70;95.20
4453;DHT22;2239;48.152;11.584;2023-04-04T00:17:10;0.70;95.30
4453;DHT22;2239;48.152;11.584;2023-04-04T00:19:36;0.70;95.20
4453;DHT22;2239;48.152;11.584;2023-04-04T00:22:01;0.70;95.30
4453;DHT22;2239;48.152;11.584;2023-04-04T00:24:27;0.70;95.20
4453;DHT22;2239;48.152;11.584;2023-04-04T00:26:53;0.70;95.50
4453;DHT22;2239;48.152;11.584;2023-04-04T00:29:19;0.70;95.30
4453;DHT22;2239;48.152;11.584;2023-04-04T00:31:44;0.70;95.40
4453;DHT22;2239;48.152;11.584;2023-04-04T00:34:10;0.70;95.50
4453;DHT22;2239;48.152;11.584;2023-04-04T00:36:36;0.60;95.50
4453;DHT22;2239;48.152;11.584;2023-04-04T00:39:02;0.60;95.30
4453;DHT22;2239;48.152;11.584;2023-04-04T00:41:28;0.50;95.30
4453;DHT22;2239;48.152;11.584;2023-04-04T00:43:54;0.50;95.30
4453;DHT22;2239;48.152;11.584;2023-04-04T00:46:20;0.50;95.50
4453;DHT22;2239;48.152;11.584;2023-04-04T00:48:47;0.40;95.70
4453;DHT22;2239;48.152;11.584;2023-04-04T00:51:12;0.40;95.70
4453;DHT22;2239;48.152;11.584;2023-04-04T00:53:38;0.40;95.50
4453;DHT22;2239;48.152;11.584;2023-04-04T00:56:04;0.30;95.90
4453;DHT22;2239;48.152;11.584;2023-04-04T00:58:31;0.30;96.00
4453;DHT22;2239;48.152;11.584;2023-04-04T01:00:57;0.30;95.80
4453;DHT22;2239;48.152;11.584;2023-04-04T01:03:24;0.30;95.90
4453;DHT22;2239;48.152;11.584;2023-04-04T01:05:49;0.20;95.90
4453;DHT22;2239;48.152;11.584;2023-04-04T01:08:21;0.20;95.80
4453;DHT22;2239;48.152;11.584;2023-04-04T01:10:47;0.10;95.90
4453;DHT22;2239;48.152;11.584;2023-04-04T01:13:14;0.10;95.90
4453;DHT22;2239;48.152;11.584;2023-04-04T01:15:41;0.10;96.00
4453;DHT22;2239;48.152;11.584;2023-04-04T01:18:08;0.10;96.00
4453;DHT22;2239;48.152;11.584;2023-04-04T01:20:39;0.10;95.90
4453;DHT22;2239;48.152;11.584;2023-04-04T01:23:07;0.00;96.00
4453;DHT22;2239;48.152;11.584;2023-04-04T01:25:33;0.00;96.00
4453;DHT22;2239;48.152;11.584;2023-04-04T01:27:59;0.00;96.00
4453;DHT22;2239;48.152;11.584;2023-04-04T01:30:31;0.00;96.00
4453;DHT22;2239;48.152;11.584;2023-04-04T01:33:08;-0.10;96.20
4453;DHT22;2239;48.152;11.584;2023-04-04T01:35:43;-0.10;96.70
4453;DHT22;2239;48.152;11.584;2023-04-04T01:38:29;-0.10;97.10
4453;DHT22;2239;48.152;11.584;2023-04-04T01:41:07;-0.10;97.60
4453;DHT22;2239;48.152;11.584;2023-04-04T01:43:33;-0.10;97.80
4453;DHT22;2239;48.152;11.584;2023-04-04T01:45:59;-0.20;97.90
4453;DHT22;2239;48.152;11.584;2023-04-04T01:48:25;-0.20;98.00
4453;DHT22;2239;48.152;11.584;2023-04-04T01:50:51;-0.20;98.30
4453;DHT22;2239;48.152;11.584;2023-04-04T01:53:17;-0.20;98.30
4453;DHT22;2239;48.152;11.584;2023-04-04T01:55:43;-0.30;98.30
4453;DHT22;2239;48.152;11.584;2023-04-04T01:58:09;-0.30;98.60
4453;DHT22;2239;48.152;11.584;2023-04-04T02:00:34;-0.30;99.00
4453;DHT22;2239;48.152;11.584;2023-04-04T02:03:00;-0.40;98.60
4453;DHT22;2239;48.152;11.584;2023-04-04T02:05:26;-0.40;98.90
4453;DHT22;2239;48.152;11.584;2023-04-04T02:07:52;-0.40;98.90
4453;DHT22;2239;48.152;11.584;2023-04-04T02:10:18;-0.40;99.00
4453;DHT22;2239;48.152;11.584;2023-04-04T02:12:44;-0.40;99.20
4453;DHT22;2239;48.152;11.584;2023-04-04T02:15:10;-0.50;99.30
4453;DHT22;2239;48.152;11.584;2023-04-04T02:17:36;-0.50;99.30
4453;DHT22;2239;48.152;11.584;2023-04-04T02:20:01;-0.50;99.40
4453;DHT22;2239;48.152;11.584;2023-04-04T02:22:28;-0.50;99.60
4453;DHT22;2239;48.152;11.584;2023-04-04T02:24:53;-0.50;99.50
4453;DHT22;2239;48.152;11.584;2023-04-04T02:27:19;-0.50;99.90
4453;DHT22;2239;48.152;11.584;2023-04-04T02:29:44;-0.60;99.90
4453;DHT22;2239;48.152;11.584;2023-04-04T02:32:10;-0.50;99.90
4453;DHT22;2239;48.152;11.584;2023-04-04T02:34:35;-0.50;99.90
4453;DHT22;2239;48.152;11.584;2023-04-04T02:37:02;-0.50;99.90
4453;DHT22;2239;48.152;11.584;2023-04-04T02:39:28;-0.50;99.90
4453;DHT22;2239;48.152;11.584;2023-04-04T02:41:53;-0.60;99.90
4453;DHT22;2239;48.152;11.584;2023-04-04T02:44:19;-0.50;99.90
4453;DHT22;2239;48.152;11.584;2023-04-04T02:46:46;-0.50;99.90
4453;DHT22;2239;48.152;11.584;2023-04-04T02:49:12;-0.70;99.90
4453;DHT22;2239;48.152;11.584;2023-04-04T02:51:38;-0.70;99.90
4453;DHT22;2239;48.152;11.584;2023-04-04T02:54:04;-0.80;99.90
4453;DHT22;2239;48.152;11.584;2023-04-04T02:56:29;-0.80;99.90
4453;DHT22;2239;48.152;11.584;2023-04-04T02:58:56;-0.80;99.90
4453;DHT22;2239;48.152;11.584;2023-04-04T03:01:22;-0.80;99.90
4453;DHT22;2239;48.152;11.584;2023-04-04T03:03:47;-0.80;99.90
4453;DHT22;2239;48.152;11.584;2023-04-04T03:06:13;-0.80;99.90
4453;DHT22;2239;48.152;11.584;2023-04-04T03:08:39;-0.90;99.90
4453;DHT22;2239;48.152;11.584;2023-04-04T03:11:05;-0.90;99.90
4453;DHT22;2239;48.152;11.584;2023-04-04T03:13:30;-0.90;99.90
4453;DHT22;2239;48.152;11.584;2023-04-04T03:16:01;-0.90;99.90
4453;DHT22;2239;48.152;11.584;2023-04-04T03:18:28;-0.90;99.90
4453;DHT22;2239;48.152;11.584;2023-04-04T03:20:53;-1.00;99.90
4453;DHT22;2239;48.152;11.584;2023-04-04T03:23:19;-1.00;99.90
4453;DHT22;2239;48.152;11.584;2023-04-04T03:25:45;-1.00;99.90
4453;DHT22;2239;48.152;11.584;2023-04-04T03:28:11;-1.00;99.90
4453;DHT22;2239;48.152;11.584;2023-04-04T03:30:37;-1.00;99.90
4453;DHT22;2239;48.152;11.584;2023-04-04T03:33:04;-1.00;99.90
4453;DHT22;2239;48.152;11.584;2023-04-04T03:35:32;-1.10;99.90
4453;DHT22;2239;48.152;11.584;2023-04-04T03:38:00;-1.00;99.90
4453;DHT22;2239;48.152;11.584;2023-04-04T03:40:26;-1.00;99.90
4453;DHT22;2239;48.152;11.584;2023-04-04T03:42:51;-1.00;99.90
4453;DHT22;2239;48.152;11.584;2023-04-04T03:45:17;-1.10;99.90
4453;DHT22;2239;48.152;11.584;2023-04-04T03:47:43;-1.20;99.90
4453;DHT22;2239;48.152;11.584;2023-04-04T03:50:09;-1.20;99.90
4453;DHT22;2239;48.152;11.584;2023-04-04T03:52:38;-1.20;99.90
4453;DHT22;2239;48.152;11.584;2023-04-04T03:55:06;-1.20;99.90
4453;DHT22;2239;48.152;11.584;2023-04-04T03:57:32;-1.30;99.90
4453;DHT22;2239;48.152;11.584;2023-04-04T03:59:58;-1.20;99.90
4453;DHT22;2239;48.152;11.584;2023-04-04T04:02:24;-1.30;99.90
4453;DHT22;2239;48.152;11.584;2023-04-04T04:04:49;-1.30;99.90
4453;DHT22;2239;48.152;11.584;2023-04-04T04:07:15;-1.30;99.90
4453;DHT22;2239;48.152;11.584;2023-04-04T04:09:41;-1.30;99.90
4453;DHT22;2239;48.152;11.584;2023-04-04T04:12:06;-1.40;99.90
4453;DHT22;2239;48.152;11.584;2023-04-04T04:14:32;-1.40;99.90
4453;DHT22;2239;48.152;11.584;2023-04-04T04:16:58;-1.40;99.90
4453;DHT22;2239;48.152;11.584;2023-04-04T04:19:23;-1.40;99.90
4453;DHT22;2239;48.152;11.584;2023-04-04T04:21:49;-1.40;99.90
4453;DHT22;2239;48.152;11.584;2023-04-04T04:24:14;-1.40;99.90
4453;DHT22;2239;48.152;11.584;2023-04-04T04:26:40;-1.40;99.90
4453;DHT22;2239;48.152;11.584;2023-04-04T04:29:06;-1.40;99.90
4453;DHT22;2239;48.152;11.584;2023-04-04T04:31:32;-1.40;99.90
4453;DHT22;2239;48.152;11.584;2023-04-04T04:33:57;-1.30;99.90
4453;DHT22;2239;48.152;11.584;2023-04-04T04:36:23;-1.40;99.90
4453;DHT22;2239;48.152;11.584;2023-04-04T04:38:49;-1.30;99.90
4453;DHT22;2239;48.152;11.584;2023-04-04T04:41:15;-1.30;99.90
4453;DHT22;2239;48.152;11.584;2023-04-04T04:43:40;-1.40;99.90
4453;DHT22;2239;48.152;11.584;2023-04-04T04:46:06;-1.40;99.90
4453;DHT22;2239;48.152;11.584;2023-04-04T04:48:33;-1.40;99.90
4453;DHT22;2239;48.152;11.584;2023-04-04T04:50:59;-1.40;99.90
4453;DHT22;2239;48.152;11.584;2023-04-04T04:53:24;-1.50;99.90
4453;DHT22;2239;48.152;11.584;2023-04-04T04:55:50;-1.50;99.90
4453;DHT22;2239;48.152;11.584;2023-04-04T04:58:19;-1.50;99.90
4453;DHT22;2239;48.152;11.584;2023-04-04T05:00:46;-1.50;99.90
4453;DHT22;2239;48.152;11.584;2023-04-04T05:03:12;-1.50;99.90
4453;DHT22;2239;48.152;11.584;2023-04-04T05:05:37;-1.50;99.90
4453;DHT22;2239;48.152;11.584;2023-04-04T05:08:04;-1.50;99.90
4453;DHT22;2239;48.152;11.584;2023-04-04T05:10:30;-1.50;99.90
4453;DHT22;2239;48.152;11.584;2023-04-04T05:12:56;-1.50;99.90
4453;DHT22;2239;48.152;11.584;2023-04-04T05:15:22;-1.40;99.90
4453;DHT22;2239;48.152;11.584;2023-04-04T05:17:47;-1.40;99.90
4453;DHT22;2239;48.152;11.584;2023-04-04T05:20:13;-1.40;99.90
4453;DHT22;2239;48.152;11.584;2023-04-04T05:22:42;-1.40;99.90
4453;DHT22;2239;48.152;11.584;2023-04-04T05:25:09;-1.40;99.90
4453;DHT22;2239;48.152;11.584;2023-04-04T05:27:35;-1.40;99.90
4453;DHT22;2239;48.152;11.584;2023-04-04T05:30:00;-1.40;99.90
4453;DHT22;2239;48.152;11.584;2023-04-04T05:32:26;-1.30;99.90
4453;DHT22;2239;48.152;11.584;2023-04-04T05:34:52;-1.30;99.90
4453;DHT22;2239;48.152;11.584;2023-04-04T05:37:17;-1.20;99.90
4453;DHT22;2239;48.152;11.584;2023-04-04T05:39:43;-1.00;99.90
4453;DHT22;2239;48.152;11.584;2023-04-04T05:42:08;-1.10;99.90
4453;DHT22;2239;48.152;11.584;2023-04-04T05:44:34;-1.00;99.90
4453;DHT22;2239;48.152;11.584;2023-04-04T05:46:59;-1.00;99.90
4453;DHT22;2239;48.152;11.584;2023-04-04T05:49:25;-0.90;99.90
4453;DHT22;2239;48.152;11.584;2023-04-04T05:51:50;-0.80;99.90
4453;DHT22;2239;48.152;11.584;2023-04-04T05:54:16;-0.70;99.90
4453;DHT22;2239;48.152;11.584;2023-04-04T05:56:43;-0.60;99.90
4453;DHT22;2239;48.152;11.584;2023-04-04T05:59:08;-0.60;99.90
4453;DHT22;2239;48.152;11.584;2023-04-04T06:01:34;-0.50;99.90
4453;DHT22;2239;48.152;11.584;2023-04-04T06:03:59;-0.50;99.90
4453;DHT22;2239;48.152;11.584;2023-04-04T06:06:25;-0.30;99.90
4453;DHT22;2239;48.152;11.584;2023-04-04T06:08:51;-0.30;99.90
4453;DHT22;2239;48.152;11.584;2023-04-04T06:11:17;-0.30;99.40
4453;DHT22;2239;48.152;11.584;2023-04-04T06:13:43;-0.30;99.40
4453;DHT22;2239;48.152;11.584;2023-04-04T06:16:08;-0.40;99.60
4453;DHT22;2239;48.152;11.584;2023-04-04T06:18:35;-0.30;99.40
4453;DHT22;2239;48.152;11.584;2023-04-04T06:21:00;-0.20;99.30
4453;DHT22;2239;48.152;11.584;2023-04-04T06:23:26;-0.10;99.00
4453;DHT22;2239;48.152;11.584;2023-04-04T06:25:52;-0.10;98.80
4453;DHT22;2239;48.152;11.584;2023-04-04T06:28:18;0.10;98.50
4453;DHT22;2239;48.152;11.584;2023-04-04T06:30:43;0.20;98.40
4453;DHT22;2239;48.152;11.584;2023-04-04T06:33:09;0.30;98.00
4453;DHT22;2239;48.152;11.584;2023-04-04T06:35:35;0.40;97.10
4453;DHT22;2239;48.152;11.584;2023-04-04T06:38:01;0.40;96.90
4453;DHT22;2239;48.152;11.584;2023-04-04T06:40:28;0.50;96.80
4453;DHT22;2239;48.152;11.584;2023-04-04T06:42:54;0.60;96.40
4453;DHT22;2239;48.152;11.584;2023-04-04T06:45:25;0.70;95.80
4453;DHT22;2239;48.152;11.584;2023-04-04T06:47:52;0.80;95.80
4453;DHT22;2239;48.152;11.584;2023-04-04T06:50:19;0.80;94.80
4453;DHT22;2239;48.152;11.584;2023-04-04T06:52:45;0.80;94.60
4453;DHT22;2239;48.152;11.584;2023-04-04T06:55:11;0.80;94.30
4453;DHT22;2239;48.152;11.584;2023-04-04T06:57:37;1.00;94.40
4453;DHT22;2239;48.152;11.584;2023-04-04T07:00:04;1.10;94.10
4453;DHT22;2239;48.152;11.584;2023-04-04T07:02:30;1.10;93.90
4453;DHT22;2239;48.152;11.584;2023-04-04T07:04:55;1.20;93.50
4453;DHT22;2239;48.152;11.584;2023-04-04T07:07:21;1.50;93.50
4453;DHT22;2239;48.152;11.584;2023-04-04T07:09:46;1.70;92.30
4453;DHT22;2239;48.152;11.584;2023-04-04T07:12:12;1.80;91.70
4453;DHT22;2239;48.152;11.584;2023-04-04T07:14:38;2.00;91.50
4453;DHT22;2239;48.152;11.584;2023-04-04T07:17:03;2.10;90.70
4453;DHT22;2239;48.152;11.584;2023-04-04T07:19:29;2.10;90.30
4453;DHT22;2239;48.152;11.584;2023-04-04T07:21:55;2.00;89.80
4453;DHT22;2239;48.152;11.584;2023-04-04T07:24:21;2.20;89.80
4453;DHT22;2239;48.152;11.584;2023-04-04T07:26:46;2.20;88.80
4453;DHT22;2239;48.152;11.584;2023-04-04T07:29:12;2.40;87.90
4453;DHT22;2239;48.152;11.584;2023-04-04T07:31:37;2.50;86.60
4453;DHT22;2239;48.152;11.584;2023-04-04T07:34:03;2.60;86.00
4453;DHT22;2239;48.152;11.584;2023-04-04T07:36:29;2.50;83.20
4453;DHT22;2239;48.152;11.584;2023-04-04T07:38:54;2.40;83.90
4453;DHT22;2239;48.152;11.584;2023-04-04T07:41:21;2.40;83.70
4453;DHT22;2239;48.152;11.584;2023-04-04T07:43:47;2.70;83.60
4453;DHT22;2239;48.152;11.584;2023-04-04T07:46:13;2.90;82.30
4453;DHT22;2239;48.152;11.584;2023-04-04T07:48:39;3.10;81.70
4453;DHT22;2239;48.152;11.584;2023-04-04T07:51:05;3.30;81.20
4453;DHT22;2239;48.152;11.584;2023-04-04T07:53:31;3.50;80.40
4453;DHT22;2239;48.152;11.584;2023-04-04T07:55:57;3.60;78.80
4453;DHT22;2239;48.152;11.584;2023-04-04T07:58:22;3.60;78.60
4453;DHT22;2239;48.152;11.584;2023-04-04T08:00:48;3.90;77.70
4453;DHT22;2239;48.152;11.584;2023-04-04T08:03:13;4.00;77.50
4453;DHT22;2239;48.152;11.584;2023-04-04T08:05:42;4.10;76.60
4453;DHT22;2239;48.152;11.584;2023-04-04T08:08:07;4.30;76.50
4453;DHT22;2239;48.152;11.584;2023-04-04T08:10:33;4.40;74.90
4453;DHT22;2239;48.152;11.584;2023-04-04T08:12:58;4.50;74.70
4453;DHT22;2239;48.152;11.584;2023-04-04T08:15:24;4.80;73.50
4453;DHT22;2239;48.152;11.584;2023-04-04T08:17:50;4.80;71.20
4453;DHT22;2239;48.152;11.584;2023-04-04T08:20:16;5.00;70.60
4453;DHT22;2239;48.152;11.584;2023-04-04T08:22:42;5.20;70.30
4453;DHT22;2239;48.152;11.584;2023-04-04T08:25:08;5.10;69.50
4453;DHT22;2239;48.152;11.584;2023-04-04T08:27:37;4.50;68.60
4453;DHT22;2239;48.152;11.584;2023-04-04T08:30:03;3.90;70.20
4453;DHT22;2239;48.152;11.584;2023-04-04T08:32:29;3.60;71.60
4453;DHT22;2239;48.152;11.584;2023-04-04T08:34:56;3.50;73.20
4453;DHT22;2239;48.152;11.584;2023-04-04T08:37:22;3.70;73.00
4453;DHT22;2239;48.152;11.584;2023-04-04T08:39:47;3.60;71.20
4453;DHT22;2239;48.152;11.584;2023-04-04T08:42:14;3.40;71.70
4453;DHT22;2239;48.152;11.584;2023-04-04T08:44:43;3.30;72.30
4453;DHT22;2239;48.152;11.584;2023-04-04T08:47:10;3.30;72.10
4453;DHT22;2239;48.152;11.584;2023-04-04T08:49:38;3.30;72.10
4453;DHT22;2239;48.152;11.584;2023-04-04T08:52:05;3.40;70.70
4453;DHT22;2239;48.152;11.584;2023-04-04T08:54:33;3.20;66.90
4453;DHT22;2239;48.152;11.584;2023-04-04T08:57:00;3.10;66.10
4453;DHT22;2239;48.152;11.584;2023-04-04T08:59:26;3.10;67.20
4453;DHT22;2239;48.152;11.584;2023-04-04T09:02:03;3.10;68.40
4453;DHT22;2239;48.152;11.584;2023-04-04T09:04:30;3.10;66.50
4453;DHT22;2239;48.152;11.584;2023-04-04T09:06:57;2.90;64.60
4453;DHT22;2239;48.152;11.584;2023-04-04T09:09:23;2.70;63.40
4453;DHT22;2239;48.152;11.584;2023-04-04T09:11:50;2.70;65.70
4453;DHT22;2239;48.152;11.584;2023-04-04T09:14:17;2.70;66.50
4453;DHT22;2239;48.152;11.584;2023-04-04T09:16:45;2.80;67.40
4453;DHT22;2239;48.152;11.584;2023-04-04T09:19:10;2.80;68.30
4453;DHT22;2239;48.152;11.584;2023-04-04T09:21:36;3.00;67.50
4453;DHT22;2239;48.152;11.584;2023-04-04T09:24:02;3.10;65.90
4453;DHT22;2239;48.152;11.584;2023-04-04T09:26:33;2.80;64.10
4453;DHT22;2239;48.152;11.584;2023-04-04T09:29:10;3.00;65.70
4453;DHT22;2239;48.152;11.584;2023-04-04T09:31:36;3.20;66.10
4453;DHT22;2239;48.152;11.584;2023-04-04T09:34:01;3.30;66.70
4453;DHT22;2239;48.152;11.584;2023-04-04T09:36:27;3.50;66.10
4453;DHT22;2239;48.152;11.584;2023-04-04T09:38:53;3.60;65.70
4453;DHT22;2239;48.152;11.584;2023-04-04T09:41:19;3.40;66.10
4453;DHT22;2239;48.152;11.584;2023-04-04T09:43:45;3.20;66.60
4453;DHT22;2239;48.152;11.584;2023-04-04T09:46:11;3.30;67.20
4453;DHT22;2239;48.152;11.584;2023-04-04T09:48:37;3.40;66.60
4453;DHT22;2239;48.152;11.584;2023-04-04T09:51:04;3.50;66.40
4453;DHT22;2239;48.152;11.584;2023-04-04T09:53:33;3.60;66.10
4453;DHT22;2239;48.152;11.584;2023-04-04T09:55:59;3.60;65.10
4453;DHT22;2239;48.152;11.584;2023-04-04T09:58:28;3.70;65.10
4453;DHT22;2239;48.152;11.584;2023-04-04T10:01:00;3.70;65.20
4453;DHT22;2239;48.152;11.584;2023-04-04T10:03:29;3.90;65.40
4453;DHT22;2239;48.152;11.584;2023-04-04T10:06:08;4.10;65.00
4453;DHT22;2239;48.152;11.584;2023-04-04T10:08:40;4.30;64.00
4453;DHT22;2239;48.152;11.584;2023-04-04T10:11:06;4.50;61.10
4453;DHT22;2239;48.152;11.584;2023-04-04T10:13:33;4.50;60.50
4453;DHT22;2239;48.152;11.584;2023-04-04T10:16:05;4.60;61.10
4453;DHT22;2239;48.152;11.584;2023-04-04T10:18:34;4.60;60.90
4453;DHT22;2239;48.152;11.584;2023-04-04T10:21:03;4.50;60.70
4453;DHT22;2239;48.152;11.584;2023-04-04T10:23:29;4.30;60.40
4453;DHT22;2239;48.152;11.584;2023-04-04T10:25:57;4.20;59.40
4453;DHT22;2239;48.152;11.584;2023-04-04T10:28:23;4.40;59.80
4453;DHT22;2239;48.152;11.584;2023-04-04T10:31:24;5.00;59.60
4453;DHT22;2239;48.152;11.584;2023-04-04T10:34:09;5.20;57.90
4453;DHT22;2239;48.152;11.584;2023-04-04T10:36:44;5.20;57.90
4453;DHT22;2239;48.152;11.584;2023-04-04T10:39:23;5.00;57.30
4453;DHT22;2239;48.152;11.584;2023-04-04T10:41:51;5.00;57.90
4453;DHT22;2239;48.152;11.584;2023-04-04T10:44:30;4.80;58.50
4453;DHT22;2239;48.152;11.584;2023-04-04T10:47:03;4.90;58.80
4453;DHT22;2239;48.152;11.584;2023-04-04T10:49:33;5.30;58.40
4453;DHT22;2239;48.152;11.584;2023-04-04T10:51:59;5.40;57.30
4453;DHT22;2239;48.152;11.584;2023-04-04T10:54:26;5.80;57.50
4453;DHT22;2239;48.152;11.584;2023-04-04T10:56:54;5.90;56.10
4453;DHT22;2239;48.152;11.584;2023-04-04T10:59:24;5.90;54.70
4453;DHT22;2239;48.152;11.584;2023-04-04T11:02:00;5.60;54.90
4453;DHT22;2239;48.152;11.584;2023-04-04T11:04:34;5.30;55.10
4453;DHT22;2239;48.152;11.584;2023-04-04T11:07:14;5.20;55.70
4453;DHT22;2239;48.152;11.584;2023-04-04T11:12:19;5.20;56.00
4453;DHT22;2239;48.152;11.584;2023-04-04T11:20:22;6.30;53.60
4453;DHT22;2239;48.152;11.584;2023-04-04T11:23:08;5.80;53.50
4453;DHT22;2239;48.152;11.584;2023-04-04T11:25:40;5.40;54.50
4453;DHT22;2239;48.152;11.584;2023-04-04T11:28:25;5.70;55.70
4453;DHT22;2239;48.152;11.584;2023-04-04T11:34:05;6.70;53.10
4453;DHT22;2239;48.152;11.584;2023-04-04T11:39:07;7.00;52.10
4453;DHT22;2239;48.152;11.584;2023-04-04T11:44:16;7.10;50.60
4453;DHT22;2239;48.152;11.584;2023-04-04T11:46:42;7.50;50.40
4453;DHT22;2239;48.152;11.584;2023-04-04T11:49:09;7.20;49.80
4453;DHT22;2239;48.152;11.584;2023-04-04T11:51:35;6.90;50.20
4453;DHT22;2239;48.152;11.584;2023-04-04T11:54:04;7.20;51.30
4453;DHT22;2239;48.152;11.584;2023-04-04T11:56:35;7.40;51.00
4453;DHT22;2239;48.152;11.584;2023-04-04T11:59:05;7.10;50.10
4453;DHT22;2239;48.152;11.584;2023-04-04T12:01:31;6.90;50.80
4453;DHT22;2239;48.152;11.584;2023-04-04T12:03:58;7.10;50.60
4453;DHT22;2239;48.152;11.584;2023-04-04T12:06:25;7.10;50.30
4453;DHT22;2239;48.152;11.584;2023-04-04T12:08:53;7.20;49.70
4453;DHT22;2239;48.152;11.584;2023-04-04T12:11:19;7.20;48.60
4453;DHT22;2239;48.152;11.584;2023-04-04T12:13:49;7.00;48.10
4453;DHT22;2239;48.152;11.584;2023-04-04T12:16:18;7.00;48.00
4453;DHT22;2239;48.152;11.584;2023-04-04T12:18:44;7.20;49.40
4453;DHT22;2239;48.152;11.584;2023-04-04T12:21:10;7.40;49.60
4453;DHT22;2239;48.152;11.584;2023-04-04T12:23:36;7.90;49.30
4453;DHT22;2239;48.152;11.584;2023-04-04T12:26:02;7.70;48.00
4453;DHT22;2239;48.152;11.584;2023-04-04T12:28:30;7.60;48.40
4453;DHT22;2239;48.152;11.584;2023-04-04T12:30:59;8.00;49.60
4453;DHT22;2239;48.152;11.584;2023-04-04T12:33:30;8.60;47.90
4453;DHT22;2239;48.152;11.584;2023-04-04T12:35:58;8.30;45.90
4453;DHT22;2239;48.152;11.584;2023-04-04T12:38:24;7.80;46.40
4453;DHT22;2239;48.152;11.584;2023-04-04T12:40:51;7.70;47.50
4453;DHT22;2239;48.152;11.584;2023-04-04T12:43:17;7.90;47.70
4453;DHT22;2239;48.152;11.584;2023-04-04T12:45:44;8.00;47.00
4453;DHT22;2239;48.152;11.584;2023-04-04T12:48:12;7.80;47.10
4453;DHT22;2239;48.152;11.584;2023-04-04T12:50:51;7.70;47.90
4453;DHT22;2239;48.152;11.584;2023-04-04T12:53:21;7.70;47.10
4453;DHT22;2239;48.152;11.584;2023-04-04T12:55:49;7.70;47.60
4453;DHT22;2239;48.152;11.584;2023-04-04T12:58:16;7.80;47.20
4453;DHT22;2239;48.152;11.584;2023-04-04T13:00:42;7.40;47.40
4453;DHT22;2239;48.152;11.584;2023-04-04T13:03:08;6.90;48.80
4453;DHT22;2239;48.152;11.584;2023-04-04T13:05:34;6.90;49.40
4453;DHT22;2239;48.152;11.584;2023-04-04T13:08:07;7.00;49.60
4453;DHT22;2239;48.152;11.584;2023-04-04T13:10:56;7.40;49.40
4453;DHT22;2239;48.152;11.584;2023-04-04T13:15:59;7.80;46.60
4453;DHT22;2239;48.152;11.584;2023-04-04T13:18:26;7.90;46.90
4453;DHT22;2239;48.152;11.584;2023-04-04T13:20:56;7.80;45.70
4453;DHT22;2239;48.152;11.584;2023-04-04T13:23:22;7.30;45.20
4453;DHT22;2239;48.152;11.584;2023-04-04T13:25:47;6.90;45.80
4453;DHT22;2239;48.152;11.584;2023-04-04T13:28:13;6.30;47.20
4453;DHT22;2239;48.152;11.584;2023-04-04T13:30:39;6.30;48.80
4453;DHT22;2239;48.152;11.584;2023-04-04T13:33:17;6.70;50.30
4453;DHT22;2239;48.152;11.584;2023-04-04T13:35:43;7.30;47.90
4453;DHT22;2239;48.152;11.584;2023-04-04T13:38:10;7.10;46.10
4453;DHT22;2239;48.152;11.584;2023-04-04T13:40:36;6.90;46.60
4453;DHT22;2239;48.152;11.584;2023-04-04T13:43:01;6.60;47.30
4453;DHT22;2239;48.152;11.584;2023-04-04T13:45:27;6.30;48.10
4453;DHT22;2239;48.152;11.584;2023-04-04T13:47:52;6.30;47.80
4453;DHT22;2239;48.152;11.584;2023-04-04T13:50:18;6.70;48.50
4453;DHT22;2239;48.152;11.584;2023-04-04T13:52:43;6.90;47.90
4453;DHT22;2239;48.152;11.584;2023-04-04T13:55:10;6.90;47.80
4453;DHT22;2239;48.152;11.584;2023-04-04T13:57:36;6.90;47.40
4453;DHT22;2239;48.152;11.584;2023-04-04T14:00:02;7.00;47.30
4453;DHT22;2239;48.152;11.584;2023-04-04T14:02:29;7.10;47.60
4453;DHT22;2239;48.152;11.584;2023-04-04T14:04:55;7.40;47.80
4453;DHT22;2239;48.152;11.584;2023-04-04T14:07:20;7.30;46.70
4453;DHT22;2239;48.152;11.584;2023-04-04T14:09:47;7.40;47.20
4453;DHT22;2239;48.152;11.584;2023-04-04T14:12:13;7.70;47.80
4453;DHT22;2239;48.152;11.584;2023-04-04T14:14:38;7.70;46.10
4453;DHT22;2239;48.152;11.584;2023-04-04T14:17:05;7.50;45.10
4453;DHT22;2239;48.152;11.584;2023-04-04T14:19:31;7.40;47.30
4453;DHT22;2239;48.152;11.584;2023-04-04T14:21:56;7.30;46.40
4453;DHT22;2239;48.152;11.584;2023-04-04T14:24:22;7.10;46.00
4453;DHT22;2239;48.152;11.584;2023-04-04T14:26:48;7.00;47.20
4453;DHT22;2239;48.152;11.584;2023-04-04T14:29:13;6.90;47.20
4453;DHT22;2239;48.152;11.584;2023-04-04T14:31:39;6.50;47.60
4453;DHT22;2239;48.152;11.584;2023-04-04T14:34:05;6.30;49.60
4453;DHT22;2239;48.152;11.584;2023-04-04T14:36:31;6.30;50.00
4453;DHT22;2239;48.152;11.584;2023-04-04T14:38:56;6.30;50.00
4453;DHT22;2239;48.152;11.584;2023-04-04T14:41:22;6.60;50.60
4453;DHT22;2239;48.152;11.584;2023-04-04T14:43:48;6.90;48.90
4453;DHT22;2239;48.152;11.584;2023-04-04T14:46:13;6.50;48.80
4453;DHT22;2239;48.152;11.584;2023-04-04T14:48:39;6.10;49.60
4453;DHT22;2239;48.152;11.584;2023-04-04T14:51:05;5.80;50.40
4453;DHT22;2239;48.152;11.584;2023-04-04T14:53:30;5.80;50.40
4453;DHT22;2239;48.152;11.584;2023-04-04T14:55:56;6.00;50.00
4453;DHT22;2239;48.152;11.584;2023-04-04T14:58:21;6.10;50.80
4453;DHT22;2239;48.152;11.584;2023-04-04T15:00:47;6.30;50.30
4453;DHT22;2239;48.152;11.584;2023-04-04T15:03:14;6.60;50.10
4453;DHT22;2239;48.152;11.584;2023-04-04T15:05:40;6.60;48.60
4453;DHT22;2239;48.152;11.584;2023-04-04T15:08:06;6.70;48.50
4453;DHT22;2239;48.152;11.584;2023-04-04T15:10:31;6.80;48.80
4453;DHT22;2239;48.152;11.584;2023-04-04T15:12:57;6.70;47.80
4453;DHT22;2239;48.152;11.584;2023-04-04T15:15:22;6.60;47.60
4453;DHT22;2239;48.152;11.584;2023-04-04T15:17:48;6.50;48.40
4453;DHT22;2239;48.152;11.584;2023-04-04T15:20:14;6.40;48.20
4453;DHT22;2239;48.152;11.584;2023-04-04T15:22:39;6.40;49.40
4453;DHT22;2239;48.152;11.584;2023-04-04T15:25:07;6.50;49.70
4453;DHT22;2239;48.152;11.584;2023-04-04T15:27:33;6.50;49.60
4453;DHT22;2239;48.152;11.584;2023-04-04T15:29:59;6.30;49.30
4453;DHT22;2239;48.152;11.584;2023-04-04T15:32:24;6.20;49.20
4453;DHT22;2239;48.152;11.584;2023-04-04T15:34:50;6.10;50.00
4453;DHT22;2239;48.152;11.584;2023-04-04T15:37:16;6.10;49.20
4453;DHT22;2239;48.152;11.584;2023-04-04T15:39:42;6.00;48.70
4453;DHT22;2239;48.152;11.584;2023-04-04T15:42:08;6.00;49.30
4453;DHT22;2239;48.152;11.584;2023-04-04T15:44:34;5.70;50.20
4453;DHT22;2239;48.152;11.584;2023-04-04T15:46:59;5.70;50.80
4453;DHT22;2239;48.152;11.584;2023-04-04T15:49:25;5.70;51.10
4453;DHT22;2239;48.152;11.584;2023-04-04T15:51:52;5.60;51.60
4453;DHT22;2239;48.152;11.584;2023-04-04T15:54:18;5.30;51.80
4453;DHT22;2239;48.152;11.584;2023-04-04T15:56:43;5.10;52.30
4453;DHT22;2239;48.152;11.584;2023-04-04T15:59:09;5.20;52.90
4453;DHT22;2239;48.152;11.584;2023-04-04T16:01:35;5.40;53.30
4453;DHT22;2239;48.152;11.584;2023-04-04T16:04:01;5.50;52.60
4453;DHT22;2239;48.152;11.584;2023-04-04T16:06:27;5.60;52.80
4453;DHT22;2239;48.152;11.584;2023-04-04T16:08:54;5.40;51.30
4453;DHT22;2239;48.152;11.584;2023-04-04T16:11:20;5.30;51.20
4453;DHT22;2239;48.152;11.584;2023-04-04T16:13:46;5.20;51.40